Terminal Aerodrome Forecast
Issued by NWS Sioux Falls, SD

Home | Current Version | Previous Version | Graphics & Text | Print | Product List | Glossary Off
Versions: 1 2 3 4 5 6 7 8 9 10 11 12 13 14 15 16 17 18 19 20 21 22 23

366
FTUS43 KFSD 211129
TAFSUX
TAF
KSUX 211129Z 2112/2212 09011KT P6SM VCSH OVC100
     FM211600 09011G17KT P6SM BKN100
     FM220200 09008KT P6SM SCT100=

USA.gov is the U.S. government's official web portal to all federal, state and local government web resources and services.